Time;durP1;ratioP1;P1;durP2;ratioP2;P2;SDS_P1;SDS_P2;PMS_P1;PMS_P2;Temp;Humidity;BMP_temperature;BMP_pressure;BME280_temperature;BME280_humidity;BME280_pressure;Samples;Min_cycle;Max_cycle;Signal;HPM_P1;HPM_P2
2023/09/12 00:01:05;;;;;;;27.15;24.33;;;;;;;21.22;99.30;101147.19;5032981;28;20543;-64
2023/09/12 00:03:31;;;;;;;28.85;25.75;;;;;;;21.03;100.00;101149.09;5048981;28;20057;-64
2023/09/12 00:05:59;;;;;;;25.85;23.35;;;;;;;21.16;99.71;101145.97;5051161;28;20078;-64
2023/09/12 00:08:24;;;;;;;25.40;22.90;;;;;;;21.15;99.05;101154.22;5050201;28;20538;-64
2023/09/12 00:11:03;;;;;;;28.05;25.10;;;;;;;21.14;99.99;101153.38;5051214;28;20033;-65
2023/09/12 00:13:29;;;;;;;28.25;25.35;;;;;;;20.89;100.00;101152.38;5064740;28;20384;-64
2023/09/12 00:15:55;;;;;;;28.67;24.05;;;;;;;20.96;99.74;101158.00;5051146;28;20024;-64
2023/09/12 00:18:20;;;;;;;26.90;24.05;;;;;;;20.93;100.00;101156.44;5033821;28;20024;-65
2023/09/12 00:20:45;;;;;;;27.27;24.48;;;;;;;20.94;100.00;101160.88;5033489;28;20018;-64
2023/09/12 00:23:11;;;;;;;27.75;24.73;;;;;;;20.97;100.00;101156.97;5045642;28;20055;-65
2023/09/12 00:25:36;;;;;;;26.25;23.52;;;;;;;20.97;100.00;101163.25;5050065;28;20035;-64
2023/09/12 00:28:01;;;;;;;25.98;23.17;;;;;;;20.90;100.00;101162.16;5017540;28;20036;-64
2023/09/12 00:30:27;;;;;;;26.55;23.75;;;;;;;20.77;100.00;101159.03;5033352;28;20108;-64
2023/09/12 00:32:52;;;;;;;26.38;23.63;;;;;;;20.80;100.00;101156.00;5051407;28;20060;-64
2023/09/12 00:35:17;;;;;;;27.17;23.63;;;;;;;20.75;100.00;101163.72;5050886;28;20021;-64
2023/09/12 00:37:43;;;;;;;26.50;23.70;;;;;;;20.68;100.00;101162.63;5063306;28;20402;-64
2023/09/12 00:40:08;;;;;;;29.40;23.75;;;;;;;20.71;100.00;101165.06;5059935;28;20043;-64
2023/09/12 00:42:34;;;;;;;26.45;23.67;;;;;;;20.68;100.00;101163.50;5070289;28;20024;-64
2023/09/12 00:44:59;;;;;;;25.23;21.83;;;;;;;20.68;100.00;101158.09;5071503;28;20031;-64
2023/09/12 00:47:26;;;;;;;26.20;23.45;;;;;;;20.58;100.00;101157.31;5044798;28;20032;-64
2023/09/12 00:49:53;;;;;;;25.90;21.67;;;;;;;20.63;100.00;101153.16;5050914;28;20706;-65
2023/09/12 00:52:21;;;;;;;26.92;22.33;;;;;;;20.58;99.62;101150.06;5050774;28;20025;-64
2023/09/12 00:54:48;;;;;;;25.08;22.38;;;;;;;20.59;99.77;101149.06;5051190;28;20048;-64
2023/09/12 00:57:14;;;;;;;27.30;22.38;;;;;;;20.49;99.67;101150.94;5035330;28;20383;-64
2023/09/12 00:59:39;;;;;;;27.58;23.90;;;;;;;20.43;100.00;101144.31;5049036;28;20028;-64
2023/09/12 01:02:06;;;;;;;29.98;22.50;;;;;;;20.48;99.45;101143.00;5050041;28;20060;-65
2023/09/12 01:04:32;;;;;;;26.25;23.23;;;;;;;20.41;100.00;101145.47;5062613;28;20521;-65
2023/09/12 01:06:58;;;;;;;27.08;23.17;;;;;;;20.48;98.60;101151.97;5036790;28;20033;-64
2023/09/12 01:09:24;;;;;;;28.50;25.45;;;;;;;20.32;100.00;101157.19;5076235;28;20043;-65
2023/09/12 01:11:49;;;;;;;28.48;25.55;;;;;;;20.17;100.00;101143.34;5020344;28;20114;-64
2023/09/12 01:14:15;;;;;;;27.67;25.08;;;;;;;20.23;100.00;101139.19;5048858;28;20029;-65
2023/09/12 01:16:41;;;;;;;26.17;23.23;;;;;;;20.26;100.00;101138.88;5045782;28;20025;-64
2023/09/12 01:19:08;;;;;;;26.17;23.50;;;;;;;20.21;100.00;101147.47;5046509;28;20083;-64
2023/09/12 01:21:45;;;;;;;26.08;23.30;;;;;;;20.22;99.83;101145.63;5048762;28;20025;-64
2023/09/12 01:24:48;;;;;;;26.60;23.90;;;;;;;20.26;99.93;101152.41;5064201;28;20036;-64
2023/09/12 01:27:21;;;;;;;26.02;23.52;;;;;;;20.17;99.27;101143.34;5040059;28;20025;-64
2023/09/12 01:29:50;;;;;;;27.88;23.42;;;;;;;20.18;98.84;101142.38;5059175;28;20032;-64
2023/09/12 01:32:19;;;;;;;27.02;23.58;;;;;;;20.02;99.13;101136.78;5053427;28;20787;-64
2023/09/12 01:34:45;;;;;;;28.40;24.13;;;;;;;20.02;99.65;101126.81;5065757;28;20037;-64
2023/09/12 01:37:10;;;;;;;26.55;23.70;;;;;;;20.05;99.43;101133.78;5050872;28;20056;-65
2023/09/12 01:39:36;;;;;;;27.48;23.27;;;;;;;19.93;99.07;101125.88;5049783;28;20056;-64
2023/09/12 01:42:02;;;;;;;27.40;24.58;;;;;;;19.89;98.67;101131.75;5052833;28;20025;-64
2023/09/12 01:44:29;;;;;;;26.20;23.77;;;;;;;19.98;98.76;101136.22;5035545;28;20494;-65
2023/09/12 01:46:56;;;;;;;27.73;24.90;;;;;;;19.89;99.48;101134.44;5050899;28;20025;-64
2023/09/12 01:49:24;;;;;;;27.35;23.90;;;;;;;19.92;99.49;101142.25;5051111;28;20013;-65
2023/09/12 01:51:53;;;;;;;29.17;23.77;;;;;;;19.86;99.04;101141.00;5051300;28;20083;-64
2023/09/12 01:54:20;;;;;;;27.75;22.73;;;;;;;19.93;98.32;101144.78;5051656;28;20403;-64
2023/09/12 01:56:46;;;;;;;26.80;24.20;;;;;;;19.86;98.52;101146.38;5048904;28;20155;-65
2023/09/12 01:59:13;;;;;;;28.70;23.90;;;;;;;19.80;98.56;101155.09;5038779;28;20560;-64
2023/09/12 02:01:38;;;;;;;25.60;23.05;;;;;;;19.81;98.58;101147.84;5046179;28;20017;-64
2023/09/12 02:04:08;;;;;;;27.40;24.50;;;;;;;19.81;98.80;101143.28;5052684;28;20037;-64
2023/09/12 02:06:34;;;;;;;25.70;23.13;;;;;;;19.65;98.90;101138.53;5049271;28;20406;-65
2023/09/12 02:08:59;;;;;;;26.45;23.80;;;;;;;19.77;99.68;101136.50;5051658;28;20032;-64
2023/09/12 02:11:28;;;;;;;29.40;23.75;;;;;;;19.68;99.63;101124.75;5068864;28;20074;-65
2023/09/12 02:13:54;;;;;;;28.00;23.08;;;;;;;19.73;99.40;101130.53;5052499;28;20132;-64
2023/09/12 02:16:19;;;;;;;27.05;24.35;;;;;;;19.68;100.00;101134.69;5034624;28;20516;-65
2023/09/12 02:18:44;;;;;;;26.75;24.00;;;;;;;19.68;99.14;101132.84;5044815;28;20035;-65
2023/09/12 02:21:10;;;;;;;25.35;22.65;;;;;;;19.67;99.41;101133.81;5023350;28;20028;-64
2023/09/12 02:23:35;;;;;;;26.23;23.35;;;;;;;19.70;99.90;101136.22;5053623;28;20464;-64
2023/09/12 02:26:00;;;;;;;24.77;22.15;;;;;;;19.63;99.88;101148.59;5051520;28;20068;-64
2023/09/12 02:28:26;;;;;;;24.42;21.50;;;;;;;19.59;100.00;101141.78;5046373;28;20465;-65
2023/09/12 02:30:51;;;;;;;23.38;19.40;;;;;;;19.55;100.00;101139.53;5015701;28;20021;-65
2023/09/12 02:33:17;;;;;;;21.35;19.15;;;;;;;19.54;100.00;101145.94;5065581;28;20131;-64
2023/09/12 02:35:42;;;;;;;24.92;19.23;;;;;;;19.49;100.00;101138.28;5051320;28;20025;-64
2023/09/12 02:38:07;;;;;;;24.17;18.25;;;;;;;19.53;100.00;101137.00;5052634;28;20484;-68
2023/09/12 02:40:33;;;;;;;20.70;18.70;;;;;;;19.50;100.00;101139.97;5047316;28;20025;-64
2023/09/12 02:42:58;;;;;;;21.50;19.00;;;;;;;19.52;100.00;101141.50;5048301;28;20082;-64
2023/09/12 02:45:24;;;;;;;23.42;19.95;;;;;;;19.50;100.00;101138.13;5052001;28;20480;-65
2023/09/12 02:47:49;;;;;;;25.02;19.20;;;;;;;19.48;100.00;101133.88;5034781;28;20163;-65
2023/09/12 02:50:14;;;;;;;21.55;19.27;;;;;;;19.46;100.00;101138.56;5040718;28;20029;-65
2023/09/12 02:52:40;;;;;;;21.92;19.58;;;;;;;19.37;100.00;101132.22;5034735;28;20025;-64
2023/09/12 02:55:06;;;;;;;24.50;20.92;;;;;;;19.40;100.00;101139.16;5052910;28;20021;-64
2023/09/12 02:57:31;;;;;;;21.65;19.50;;;;;;;19.37;100.00;101134.06;5053809;28;20040;-65
2023/09/12 02:59:56;;;;;;;21.90;19.50;;;;;;;19.35;100.00;101138.75;5034145;28;20013;-65
2023/09/12 03:02:22;;;;;;;21.80;19.23;;;;;;;19.37;100.00;101145.69;5025042;28;20051;-65
2023/09/12 03:04:47;;;;;;;20.92;18.98;;;;;;;19.37;100.00;101136.75;5046018;28;20392;-64
2023/09/12 03:07:13;;;;;;;20.52;18.40;;;;;;;19.32;100.00;101139.88;5022567;28;20029;-65
2023/09/12 03:09:38;;;;;;;23.17;18.58;;;;;;;19.28;100.00;101135.78;5033745;28;20029;-64
2023/09/12 03:12:04;;;;;;;20.95;18.83;;;;;;;19.30;99.75;101144.59;5032914;28;20068;-64
2023/09/12 03:14:30;;;;;;;20.77;18.65;;;;;;;19.25;100.00;101145.00;5045563;28;20029;-64
2023/09/12 03:16:55;;;;;;;20.63;18.42;;;;;;;19.23;100.00;101141.59;5049178;28;20476;-64
2023/09/12 03:19:21;;;;;;;23.45;19.25;;;;;;;19.21;100.00;101130.13;5051434;28;20154;-64
2023/09/12 03:21:47;;;;;;;21.20;18.92;;;;;;;19.20;100.00;101127.56;5028377;28;20071;-64
2023/09/12 03:24:12;;;;;;;25.80;17.77;;;;;;;19.17;100.00;101114.38;5051270;28;20458;-65
2023/09/12 03:26:39;;;;;;;21.70;19.00;;;;;;;19.14;100.00;101117.38;5051198;28;20031;-64
2023/09/12 03:29:05;;;;;;;20.70;18.63;;;;;;;19.16;100.00;101123.47;5051179;28;20029;-65
2023/09/12 03:31:31;;;;;;;19.98;17.90;;;;;;;19.14;100.00;101128.16;5039864;28;20418;-64
2023/09/12 03:33:56;;;;;;;21.00;18.13;;;;;;;19.10;100.00;101121.38;5049821;28;20559;-64
2023/09/12 03:36:21;;;;;;;20.20;17.85;;;;;;;18.95;100.00;101119.13;5051330;28;20037;-65
2023/09/12 03:38:49;;;;;;;22.40;19.73;;;;;;;18.99;100.00;101120.53;5052456;28;20024;-64
2023/09/12 03:41:14;;;;;;;22.00;19.80;;;;;;;19.00;99.92;101124.94;5051691;28;20025;-65
2023/09/12 03:43:40;;;;;;;22.30;19.88;;;;;;;19.03;100.00;101127.34;5050511;28;20069;-64
2023/09/12 03:46:05;;;;;;;21.35;18.45;;;;;;;19.02;99.69;101122.91;5067263;28;20407;-65
2023/09/12 03:48:31;;;;;;;21.20;19.00;;;;;;;19.01;100.00;101123.09;5035185;28;20051;-64
2023/09/12 03:50:57;;;;;;;22.92;18.40;;;;;;;18.99;100.00;101125.91;5033841;28;20029;-64
2023/09/12 03:53:26;;;;;;;21.13;18.50;;;;;;;18.97;100.00;101132.44;5034092;28;20060;-64
2023/09/12 03:55:52;;;;;;;21.52;19.13;;;;;;;18.98;100.00;101126.06;5051054;28;20040;-65
2023/09/12 03:58:17;;;;;;;23.92;21.60;;;;;;;18.98;100.00;101117.97;5051989;28;20033;-64
2023/09/12 04:00:43;;;;;;;25.50;21.05;;;;;;;18.92;100.00;101123.97;5051877;28;20044;-64
2023/09/12 04:03:09;;;;;;;24.17;21.80;;;;;;;18.97;100.00;101118.97;5051892;28;20029;-64
2023/09/12 04:05:34;;;;;;;26.63;23.83;;;;;;;18.93;100.00;101114.88;5048575;28;20017;-65
2023/09/12 04:08:00;;;;;;;24.00;21.42;;;;;;;18.98;100.00;101120.69;5047884;28;20021;-65
2023/09/12 04:10:27;;;;;;;23.23;21.13;;;;;;;18.99;100.00;101125.91;5031487;28;20025;-65
2023/09/12 04:12:56;;;;;;;24.45;22.05;;;;;;;18.93;100.00;101109.47;5044619;28;20542;-64
2023/09/12 04:15:21;;;;;;;24.30;21.90;;;;;;;18.92;100.00;101108.63;5044903;28;20103;-65
2023/09/12 04:17:49;;;;;;;24.05;21.70;;;;;;;18.87;100.00;101107.34;5046454;28;20379;-65
2023/09/12 04:20:14;;;;;;;24.35;21.40;;;;;;;18.92;100.00;101113.19;5048451;28;20029;-64
2023/09/12 04:22:42;;;;;;;23.80;21.55;;;;;;;18.90;100.00;101105.22;5048812;28;20542;-64
2023/09/12 04:25:07;;;;;;;23.63;21.42;;;;;;;18.94;100.00;101105.78;5063377;28;20033;-65
2023/09/12 04:27:34;;;;;;;22.67;20.50;;;;;;;18.89;100.00;101106.22;5060757;28;20082;-65
2023/09/12 04:29:59;;;;;;;22.25;20.08;;;;;;;18.94;100.00;101111.16;5064522;28;20060;-64
2023/09/12 04:32:25;;;;;;;22.58;20.30;;;;;;;18.92;100.00;101105.09;5053810;28;20067;-64
2023/09/12 04:34:50;;;;;;;22.65;20.33;;;;;;;18.95;100.00;101123.66;5013460;28;20050;-64
2023/09/12 04:37:16;;;;;;;25.35;22.20;;;;;;;18.86;100.00;101122.69;5044925;28;20524;-64
2023/09/12 04:39:41;;;;;;;23.88;21.58;;;;;;;18.87;100.00;101115.44;5050046;28;20023;-65
2023/09/12 04:42:06;;;;;;;23.98;21.73;;;;;;;18.81;100.00;101115.00;5051183;28;20476;-64
2023/09/12 04:44:36;;;;;;;23.92;20.45;;;;;;;18.80;100.00;101115.19;5051026;28;20035;-64
2023/09/12 04:47:02;;;;;;;24.95;22.33;;;;;;;18.81;100.00;101108.78;5049393;28;20025;-65
2023/09/12 04:49:30;;;;;;;24.10;21.77;;;;;;;18.87;100.00;101123.53;5033382;28;20029;-64
2023/09/12 04:51:56;;;;;;;25.17;22.52;;;;;;;18.82;100.00;101121.25;5051045;28;20078;-65
2023/09/12 04:54:21;;;;;;;23.40;21.00;;;;;;;18.89;100.00;101126.94;5033044;28;20124;-65
2023/09/12 04:56:47;;;;;;;24.05;21.85;;;;;;;18.80;100.00;101131.34;5050979;28;20025;-64
2023/09/12 04:59:12;;;;;;;23.20;20.77;;;;;;;18.82;100.00;101135.59;5030967;28;20032;-64
2023/09/12 05:01:37;;;;;;;22.55;20.20;;;;;;;18.82;100.00;101138.31;5066692;28;20449;-64
2023/09/12 05:04:03;;;;;;;24.05;20.48;;;;;;;18.66;100.00;101134.44;5033339;28;20025;-64
2023/09/12 05:06:28;;;;;;;23.30;20.90;;;;;;;18.72;100.00;101125.78;5050553;28;20035;-64
2023/09/12 05:08:54;;;;;;;24.02;21.63;;;;;;;18.65;100.00;101136.28;5016656;28;20091;-64
2023/09/12 05:11:20;;;;;;;22.52;20.02;;;;;;;18.61;100.00;101124.06;5048868;28;20061;-64
2023/09/12 05:13:45;;;;;;;23.90;21.42;;;;;;;18.65;100.00;101138.09;5051157;28;20396;-64
2023/09/12 05:16:10;;;;;;;22.52;20.23;;;;;;;18.68;100.00;101143.22;5050698;28;20430;-64
2023/09/12 05:18:36;;;;;;;25.58;22.88;;;;;;;18.70;100.00;101138.53;5031295;28;20067;-64
2023/09/12 05:21:03;;;;;;;23.63;21.13;;;;;;;18.65;100.00;101128.19;5043897;28;20036;-65
2023/09/12 05:23:29;;;;;;;24.67;22.23;;;;;;;18.68;100.00;101127.91;5025830;28;20025;-65
2023/09/12 05:25:54;;;;;;;25.20;22.70;;;;;;;18.70;100.00;101122.38;5049448;28;20506;-64
2023/09/12 05:28:19;;;;;;;24.95;22.02;;;;;;;18.71;100.00;101116.00;5049490;28;20108;-64
2023/09/12 05:34:07;;;;;;;25.52;22.92;;;;;;;18.66;100.00;101104.81;5050175;28;20103;-64
2023/09/12 05:36:32;;;;;;;25.67;23.00;;;;;;;18.65;100.00;101095.88;5038997;28;20037;-64
2023/09/12 05:38:58;;;;;;;25.63;23.08;;;;;;;18.60;100.00;101088.19;5053036;28;20036;-64
2023/09/12 05:41:25;;;;;;;27.83;23.80;;;;;;;18.63;100.00;101100.53;5052687;28;20451;-64
2023/09/12 05:43:51;;;;;;;25.77;23.10;;;;;;;18.60;100.00;101106.22;5053694;28;20048;-65
2023/09/12 05:46:16;;;;;;;25.80;23.02;;;;;;;18.71;100.00;101108.78;5051708;28;20468;-65
2023/09/12 05:48:42;;;;;;;25.55;23.05;;;;;;;18.72;100.00;101115.84;5041297;28;20022;-64
2023/09/12 05:51:07;;;;;;;25.52;22.92;;;;;;;18.71;100.00;101118.69;5016786;28;20030;-64
2023/09/12 05:53:32;;;;;;;25.02;22.42;;;;;;;18.72;100.00;101121.25;5039499;28;20032;-65
2023/09/12 05:56:00;;;;;;;29.55;24.75;;;;;;;18.70;100.00;101119.66;5052276;28;20111;-64
2023/09/12 05:58:26;;;;;;;27.13;24.33;;;;;;;18.63;100.00;101110.47;5035810;28;20464;-64
2023/09/12 06:00:52;;;;;;;26.10;23.40;;;;;;;18.78;100.00;101122.53;5046090;28;20033;-64
2023/09/12 06:03:17;;;;;;;26.27;23.55;;;;;;;18.75;100.00;101120.13;5053120;28;20395;-64
2023/09/12 06:05:45;;;;;;;26.10;23.30;;;;;;;18.74;100.00;101127.38;5052935;28;20037;-64
2023/09/12 06:08:10;;;;;;;26.40;23.70;;;;;;;18.77;100.00;101137.03;5052470;28;20033;-64
2023/09/12 06:10:36;;;;;;;30.63;23.90;;;;;;;18.75;100.00;101134.47;5067545;28;20091;-64
2023/09/12 06:13:03;;;;;;;29.42;25.10;;;;;;;18.79;100.00;101132.31;5066087;28;20021;-64
2023/09/12 06:15:31;;;;;;;26.95;23.35;;;;;;;18.77;100.00;101127.09;5052661;28;20025;-64
2023/09/12 06:17:57;;;;;;;26.48;23.77;;;;;;;18.81;100.00;101139.28;5034882;28;20029;-65
2023/09/12 06:20:22;;;;;;;28.60;25.67;;;;;;;18.64;100.00;101109.47;5035204;28;20028;-65
2023/09/12 06:22:49;;;;;;;31.23;26.30;;;;;;;18.79;100.00;101138.56;5035124;28;20054;-65
2023/09/12 06:25:14;;;;;;;26.25;23.50;;;;;;;18.81;100.00;101127.66;5052204;28;20289;-64
2023/09/12 06:27:43;;;;;;;30.20;26.23;;;;;;;18.84;100.00;101130.91;5053951;28;20067;-65
2023/09/12 06:30:08;;;;;;;31.93;26.07;;;;;;;18.81;100.00;101131.19;5053905;28;20361;-64
2023/09/12 06:32:35;;;;;;;30.58;26.42;;;;;;;18.86;100.00;101138.84;5035801;28;20303;-64
2023/09/12 06:35:02;;;;;;;30.45;26.75;;;;;;;18.83;100.00;101140.00;5049661;28;20057;-64
2023/09/12 06:37:28;;;;;;;29.17;26.30;;;;;;;18.74;100.00;101142.69;5051768;28;20071;-64
2023/09/12 06:39:53;;;;;;;32.85;27.05;;;;;;;18.82;100.00;101141.00;5056261;28;20051;-64
2023/09/12 06:42:19;;;;;;;29.45;25.55;;;;;;;18.91;100.00;101141.94;5073891;28;20021;-64
2023/09/12 06:44:46;;;;;;;29.17;26.17;;;;;;;18.93;100.00;101148.06;5061407;28;20021;-64
2023/09/12 06:47:12;;;;;;;28.42;25.38;;;;;;;18.95;100.00;101158.72;5053412;28;20021;-64
2023/09/12 06:49:37;;;;;;;30.35;26.75;;;;;;;18.95;100.00;101156.00;5029646;28;20036;-65
2023/09/12 06:52:03;;;;;;;30.42;27.27;;;;;;;18.91;100.00;101151.88;5053333;28;20536;-64
2023/09/12 06:54:29;;;;;;;30.35;27.13;;;;;;;18.91;100.00;101152.72;5038497;28;20048;-64
2023/09/12 06:56:54;;;;;;;32.25;28.33;;;;;;;18.92;100.00;101159.84;5043782;28;20029;-65
2023/09/12 06:59:19;;;;;;;34.80;30.55;;;;;;;18.94;100.00;101160.56;5057253;28;20017;-64
2023/09/12 07:01:45;;;;;;;33.17;29.25;;;;;;;18.94;100.00;101155.16;5062805;28;20387;-64
2023/09/12 07:04:13;;;;;;;32.72;29.25;;;;;;;19.05;100.00;101160.38;5046124;28;20032;-65
2023/09/12 07:06:40;;;;;;;32.20;28.80;;;;;;;19.07;100.00;101160.25;5070203;28;20032;-64
2023/09/12 07:09:06;;;;;;;33.22;28.95;;;;;;;19.11;100.00;101155.41;5063427;28;20028;-64
2023/09/12 07:11:31;;;;;;;32.38;29.08;;;;;;;19.08;100.00;101153.84;5037997;28;20489;-65
2023/09/12 07:13:57;;;;;;;33.13;29.25;;;;;;;19.16;100.00;101156.69;5041579;28;20028;-64
2023/09/12 07:16:22;;;;;;;31.98;28.45;;;;;;;19.18;100.00;101151.16;5033478;28;20051;-64
2023/09/12 07:18:49;;;;;;;34.05;28.23;;;;;;;19.11;100.00;101144.63;5058397;28;20024;-64
2023/09/12 07:21:15;;;;;;;32.03;28.63;;;;;;;19.23;100.00;101159.63;5062788;28;20021;-64
2023/09/12 07:23:40;;;;;;;31.63;28.08;;;;;;;19.22;100.00;101164.19;5056919;28;20024;-64
2023/09/12 07:26:05;;;;;;;29.88;26.88;;;;;;;19.25;100.00;101165.75;5070025;28;20462;-64
2023/09/12 07:28:31;;;;;;;31.02;27.23;;;;;;;19.28;100.00;101168.16;5052862;28;20043;-64
2023/09/12 07:30:57;;;;;;;32.45;26.92;;;;;;;19.27;100.00;101172.69;5052939;28;20388;-65
2023/09/12 07:33:22;;;;;;;29.65;26.48;;;;;;;19.26;100.00;101176.38;5046701;28;20048;-64
2023/09/12 07:35:49;;;;;;;30.25;26.70;;;;;;;19.26;100.00;101170.97;5042269;28;20021;-64
2023/09/12 07:38:17;;;;;;;30.60;27.40;;;;;;;19.26;100.00;101167.44;5038976;28;20119;-64
2023/09/12 07:40:42;;;;;;;30.63;27.00;;;;;;;19.34;100.00;101169.41;5035421;28;20067;-65
2023/09/12 07:43:09;;;;;;;32.55;25.17;;;;;;;19.41;100.00;101165.13;5042432;28;20488;-64
2023/09/12 07:45:37;;;;;;;29.98;26.77;;;;;;;19.47;100.00;101162.72;5048531;28;20046;-64
2023/09/12 07:48:05;;;;;;;29.75;26.85;;;;;;;19.59;100.00;101171.47;5062218;28;20043;-65
2023/09/12 07:50:31;;;;;;;31.77;28.38;;;;;;;19.70;100.00;101174.00;5049733;28;20462;-64
2023/09/12 07:52:59;;;;;;;33.30;27.02;;;;;;;19.76;100.00;101158.22;5055463;28;20107;-65
2023/09/12 07:55:24;;;;;;;29.08;25.00;;;;;;;19.87;100.00;101166.13;5069853;28;20466;-64
2023/09/12 07:57:50;;;;;;;28.35;25.33;;;;;;;19.92;100.00;101164.69;5042481;28;20029;-65
2023/09/12 08:00:17;;;;;;;29.52;26.23;;;;;;;20.00;100.00;101158.53;5053067;28;20463;-64
2023/09/12 08:02:43;;;;;;;30.95;26.35;;;;;;;20.00;100.00;101169.34;5035423;28;20028;-64
2023/09/12 08:05:08;;;;;;;28.20;25.17;;;;;;;20.11;100.00;101162.88;5046458;28;20020;-65
2023/09/12 08:07:34;;;;;;;27.08;23.88;;;;;;;20.19;100.00;101182.72;5052007;28;20031;-65
2023/09/12 08:10:00;;;;;;;27.58;23.33;;;;;;;20.26;100.00;101185.66;5061344;28;20400;-64
2023/09/12 08:12:27;;;;;;;27.20;24.25;;;;;;;20.40;100.00;101203.22;5062942;28;20035;-64
2023/09/12 08:14:54;;;;;;;25.95;22.30;;;;;;;20.43;100.00;101195.66;5057704;28;20448;-65
2023/09/12 08:17:19;;;;;;;23.55;21.25;;;;;;;20.47;99.84;101198.03;5052745;28;20082;-65
2023/09/12 08:19:45;;;;;;;25.33;21.77;;;;;;;20.60;97.74;101209.38;5041708;28;20041;-65
2023/09/12 08:22:11;;;;;;;25.15;20.60;;;;;;;20.73;98.89;101195.47;5059161;28;20017;-65
2023/09/12 08:24:38;;;;;;;25.02;22.10;;;;;;;20.76;100.00;101205.97;5041764;28;20024;-65
2023/09/12 08:27:04;;;;;;;22.38;19.48;;;;;;;20.84;98.67;101208.75;5034832;28;20036;-65
2023/09/12 08:29:31;;;;;;;21.58;19.48;;;;;;;20.84;99.22;101206.91;5056213;28;20025;-65
2023/09/12 08:31:56;;;;;;;21.92;19.88;;;;;;;20.85;100.00;101205.03;5068811;28;20029;-65
2023/09/12 08:34:22;;;;;;;23.33;20.88;;;;;;;20.88;100.00;101215.53;5044693;28;20429;-65
2023/09/12 08:36:49;;;;;;;22.88;20.63;;;;;;;20.84;100.00;101227.69;5030892;28;20021;-64
2023/09/12 08:39:23;;;;;;;22.58;20.38;;;;;;;20.79;99.71;101230.00;5031481;28;20029;-65
2023/09/12 08:41:50;;;;;;;22.77;20.55;;;;;;;20.81;100.00;101239.66;5046809;28;20108;-65
2023/09/12 08:44:15;;;;;;;24.60;20.27;;;;;;;20.73;100.00;101222.50;5048445;28;20139;-64
2023/09/12 08:46:42;;;;;;;22.27;19.30;;;;;;;20.77;100.00;101229.31;5030152;28;20104;-65
2023/09/12 08:49:09;;;;;;;22.23;20.13;;;;;;;20.91;100.00;101223.34;5034867;28;20032;-64
2023/09/12 08:51:35;;;;;;;23.95;19.13;;;;;;;21.14;99.54;101228.28;5041741;28;20051;-65
2023/09/12 08:54:03;;;;;;;20.98;18.88;;;;;;;21.33;98.90;101225.41;5051801;28;20110;-64
2023/09/12 08:56:35;;;;;;;21.70;19.00;;;;;;;21.47;97.85;101222.16;5051071;28;20028;-64
2023/09/12 08:59:01;;;;;;;17.50;15.80;;;;;;;21.67;95.59;101233.59;5051607;28;20021;-64
2023/09/12 09:01:33;;;;;;;18.45;16.50;;;;;;;21.69;95.20;101241.59;5051373;28;20032;-64
2023/09/12 09:03:58;;;;;;;16.13;12.98;;;;;;;21.64;91.68;101236.63;5053594;28;20035;-64
2023/09/12 09:06:26;;;;;;;14.15;12.80;;;;;;;21.57;91.61;101242.88;5053709;28;20191;-65
2023/09/12 09:08:51;;;;;;;15.23;13.63;;;;;;;21.78;91.38;101237.91;5054156;28;20032;-64
2023/09/12 09:11:17;;;;;;;13.73;12.43;;;;;;;21.95;91.74;101236.16;5055042;28;20025;-64
2023/09/12 09:13:43;;;;;;;16.35;14.13;;;;;;;22.25;93.01;101226.66;5055092;28;20052;-64
2023/09/12 09:16:12;;;;;;;19.45;17.45;;;;;;;22.48;89.41;101207.94;5035229;28;20029;-64
2023/09/12 09:18:58;;;;;;;21.05;18.88;;;;;;;22.84;89.10;101203.06;5067103;28;20029;-65
2023/09/12 09:21:31;;;;;;;26.90;22.42;;;;;;;22.88;85.02;101201.72;5034743;28;20025;-65
2023/09/12 09:23:59;;;;;;;27.02;22.05;;;;;;;23.12;89.74;101200.91;5035191;28;20025;-65
2023/09/12 09:26:24;;;;;;;25.08;22.05;;;;;;;23.19;88.22;101203.78;5034842;28;20022;-65
2023/09/12 09:29:10;;;;;;;30.58;24.02;;;;;;;23.35;88.00;101197.47;5035096;28;20095;-64
2023/09/12 09:31:40;;;;;;;31.55;27.15;;;;;;;23.39;86.09;101198.00;5034932;28;20251;-64
2023/09/12 09:34:19;;;;;;;35.10;27.75;;;;;;;23.39;85.20;101208.88;5045591;28;20106;-64
2023/09/12 09:36:50;;;;;;;34.80;28.00;;;;;;;23.50;83.75;101206.63;5069981;28;20519;-65
2023/09/12 09:39:20;;;;;;;32.67;28.20;;;;;;;23.60;82.67;101211.88;5037429;28;20412;-64
2023/09/12 09:41:54;;;;;;;35.65;29.17;;;;;;;23.73;84.12;101211.34;5054825;28;20468;-64
2023/09/12 09:44:28;;;;;;;35.72;29.27;;;;;;;23.74;82.23;101213.06;5070140;28;20031;-65
2023/09/12 09:47:03;;;;;;;37.85;29.33;;;;;;;23.82;81.42;101201.31;5054875;28;20013;-65
2023/09/12 09:49:31;;;;;;;33.83;27.35;;;;;;;23.97;81.61;101200.41;5054632;28;20025;-64
2023/09/12 09:51:58;;;;;;;34.73;27.17;;;;;;;24.18;81.44;101198.97;5054390;28;20098;-64
2023/09/12 09:54:25;;;;;;;33.15;26.35;;;;;;;24.34;78.94;101204.31;5036465;28;20075;-64
2023/09/12 09:56:55;;;;;;;31.15;26.02;;;;;;;24.48;80.04;101206.31;5054480;28;20025;-64
2023/09/12 09:59:25;;;;;;;33.22;27.50;;;;;;;24.52;80.80;101205.94;5069748;28;20029;-65
2023/09/12 10:01:56;;;;;;;34.15;27.50;;;;;;;24.44;78.26;101210.41;5069805;28;20027;-65
2023/09/12 10:04:22;;;;;;;32.13;26.73;;;;;;;24.66;75.56;101211.47;5069760;28;20496;-65
2023/09/12 10:06:49;;;;;;;31.92;25.25;;;;;;;24.87;73.91;101221.69;5069276;28;20064;-64
2023/09/12 10:09:16;;;;;;;30.58;26.05;;;;;;;25.06;74.60;101209.47;5054213;28;20032;-64
2023/09/12 10:11:45;;;;;;;32.53;25.75;;;;;;;25.24;76.08;101200.16;5054267;28;20525;-64
2023/09/12 10:14:12;;;;;;;31.13;25.40;;;;;;;25.50;72.74;101188.81;5069560;28;20028;-64
2023/09/12 10:16:47;;;;;;;30.95;26.58;;;;;;;25.56;75.70;101199.84;5053493;28;20028;-64
2023/09/12 10:19:20;;;;;;;34.70;27.15;;;;;;;25.60;74.22;101197.56;5054109;28;20506;-65
2023/09/12 10:22:08;;;;;;;31.65;24.48;;;;;;;25.94;72.36;101196.19;5053784;28;20032;-64
2023/09/12 10:24:35;;;;;;;32.83;25.20;;;;;;;25.55;69.99;101192.66;5053845;28;20411;-64
2023/09/12 10:27:01;;;;;;;30.85;23.88;;;;;;;25.61;72.93;101197.38;5053975;28;20411;-64
2023/09/12 10:29:28;;;;;;;29.05;25.05;;;;;;;25.67;72.96;101190.31;5053627;28;20494;-65
2023/09/12 10:31:53;;;;;;;31.08;26.00;;;;;;;25.78;71.76;101189.88;5053874;28;20039;-64
2023/09/12 10:34:20;;;;;;;30.33;25.23;;;;;;;25.90;70.51;101186.69;5053522;28;20045;-64
2023/09/12 10:36:47;;;;;;;28.70;24.35;;;;;;;25.85;71.40;101191.88;5053544;28;20399;-65
2023/09/12 10:39:14;;;;;;;29.73;22.83;;;;;;;25.67;69.96;101189.50;5035639;28;20024;-64
2023/09/12 10:41:41;;;;;;;31.00;24.75;;;;;;;25.82;68.31;101198.53;5053612;28;20104;-64
2023/09/12 10:44:11;;;;;;;28.27;21.48;;;;;;;26.03;69.27;101190.44;5053455;28;20029;-64
2023/09/12 10:46:40;;;;;;;24.23;19.80;;;;;;;26.30;67.42;101196.22;5052412;28;20036;-64
2023/09/12 10:49:08;;;;;;;24.30;19.73;;;;;;;26.45;63.98;101197.03;5053580;28;20344;-64
2023/09/12 10:51:38;;;;;;;20.65;18.20;;;;;;;26.72;65.17;101192.72;5052993;28;20032;-64
2023/09/12 10:54:04;;;;;;;22.88;19.23;;;;;;;26.79;63.82;101194.69;5052679;28;20025;-65
2023/09/12 10:56:32;;;;;;;25.90;20.58;;;;;;;26.79;64.35;101195.53;5053201;28;20028;-64
2023/09/12 10:59:06;;;;;;;33.22;25.20;;;;;;;26.58;66.01;101201.81;5053365;28;20017;-65
2023/09/12 11:01:52;;;;;;;27.20;23.55;;;;;;;26.50;68.00;101208.25;5035313;28;20406;-65
2023/09/12 11:04:27;;;;;;;25.65;20.58;;;;;;;26.30;64.13;101204.41;5052892;28;20033;-65
2023/09/12 11:06:56;;;;;;;19.73;17.35;;;;;;;26.07;64.73;101196.38;5052429;28;20468;-65